createdAt,value
2023-01-18T00:01:01.344Z,0.80
2023-01-18T00:03:28.575Z,1.45
2023-01-18T00:05:55.469Z,0.80
2023-01-18T00:08:22.473Z,0.70
2023-01-18T00:10:49.351Z,0.77
2023-01-18T00:13:16.299Z,1.10
2023-01-18T00:15:43.141Z,1.10
2023-01-18T00:18:10.289Z,1.17
2023-01-18T00:20:37.255Z,1.50
2023-01-18T00:23:04.181Z,2.05
2023-01-18T00:25:31.162Z,1.40
2023-01-18T00:27:58.070Z,2.40
2023-01-18T00:30:27.551Z,1.35
2023-01-18T00:32:57.601Z,1.60
2023-01-18T00:35:25.432Z,1.00
2023-01-18T00:37:53.593Z,1.15
2023-01-18T00:40:22.568Z,1.92
2023-01-18T00:43:08.539Z,1.00
2023-01-18T00:45:35.497Z,0.90
2023-01-18T00:48:03.024Z,1.02
2023-01-18T00:50:30.469Z,1.12
2023-01-18T00:52:59.071Z,0.90
2023-01-18T00:55:27.173Z,1.25
2023-01-18T00:57:54.335Z,1.80
2023-01-18T01:00:27.313Z,1.48
2023-01-18T01:02:54.913Z,3.55
2023-01-18T01:05:43.967Z,1.12
2023-01-18T01:08:18.792Z,0.85
2023-01-18T01:10:48.883Z,1.30
2023-01-18T01:13:37.353Z,0.90
2023-01-18T01:16:29.827Z,0.82
2023-01-18T01:19:16.021Z,0.75
2023-01-18T01:22:01.508Z,2.08
2023-01-18T01:24:47.073Z,1.37
2023-01-18T01:27:14.361Z,1.12
2023-01-18T01:29:41.376Z,1.12
2023-01-18T01:32:08.419Z,1.30
2023-01-18T01:34:36.053Z,1.50
2023-01-18T01:37:03.970Z,1.57
2023-01-18T01:39:30.997Z,2.30
2023-01-18T01:41:57.913Z,1.92
2023-01-18T01:44:24.779Z,1.52
2023-01-18T01:47:09.129Z,0.88
2023-01-18T01:49:44.372Z,1.30
2023-01-18T01:52:18.059Z,2.92
2023-01-18T01:54:58.018Z,3.45
2023-01-18T01:57:30.092Z,2.28
2023-01-18T02:00:24.318Z,1.92
2023-01-18T02:02:56.219Z,1.63
2023-01-18T02:05:24.091Z,1.90
2023-01-18T02:07:51.713Z,1.67
2023-01-18T02:10:18.896Z,1.27
2023-01-18T02:12:48.530Z,1.92
2023-01-18T02:15:15.734Z,1.20
2023-01-18T02:17:55.668Z,1.87
2023-01-18T02:21:11.107Z,1.80
2023-01-18T02:23:59.397Z,1.30
2023-01-18T02:26:49.895Z,2.28
2023-01-18T02:29:34.685Z,1.27
2023-01-18T02:32:26.774Z,1.80
2023-01-18T02:35:06.022Z,1.85
2023-01-18T02:37:50.482Z,2.12
2023-01-18T02:40:48.219Z,3.33
2023-01-18T02:43:37.592Z,2.97
2023-01-18T02:46:27.714Z,1.37
2023-01-18T02:48:56.044Z,1.65
2023-01-18T02:51:22.948Z,2.55
2023-01-18T02:53:50.052Z,2.37
2023-01-18T02:56:25.324Z,2.47
2023-01-18T02:59:05.181Z,1.70
2023-01-18T03:01:41.483Z,1.98
2023-01-18T03:04:21.540Z,1.10
2023-01-18T03:06:57.517Z,1.98
2023-01-18T03:09:27.373Z,1.53
2023-01-18T03:12:02.899Z,2.10
2023-01-18T03:14:57.049Z,2.05
2023-01-18T03:17:36.565Z,2.55
2023-01-18T03:20:10.357Z,2.17
2023-01-18T03:23:07.837Z,2.33
2023-01-18T03:25:39.052Z,3.47
2023-01-18T03:28:28.987Z,4.47
2023-01-18T03:31:18.032Z,2.12
2023-01-18T03:33:55.016Z,2.67
2023-01-18T03:36:47.815Z,4.03
2023-01-18T03:39:30.785Z,2.50
2023-01-18T03:42:06.837Z,2.72
2023-01-18T03:44:37.253Z,2.53
2023-01-18T03:47:06.366Z,3.70
2023-01-18T03:49:34.658Z,4.70
2023-01-18T03:52:18.811Z,6.35
2023-01-18T03:55:11.634Z,4.20
2023-01-18T03:57:48.075Z,2.90
2023-01-18T04:00:16.247Z,2.53
2023-01-18T04:02:44.821Z,2.80
2023-01-18T04:05:11.847Z,2.95
2023-01-18T04:07:38.866Z,2.22
2023-01-18T04:10:06.203Z,3.00
2023-01-18T04:12:35.117Z,3.67
2023-01-18T04:15:03.567Z,2.53
2023-01-18T04:17:30.604Z,2.75
2023-01-18T04:19:57.533Z,3.78
2023-01-18T04:22:24.759Z,3.35
2023-01-18T04:24:51.732Z,3.72
2023-01-18T04:27:19.081Z,4.33
2023-01-18T04:29:45.950Z,3.92
2023-01-18T04:32:12.846Z,3.40
2023-01-18T04:34:39.728Z,3.33
2023-01-18T04:37:06.646Z,3.70
2023-01-18T04:39:33.492Z,5.70
2023-01-18T04:42:00.440Z,4.87
2023-01-18T04:44:27.395Z,3.72
2023-01-18T04:46:54.379Z,3.25
2023-01-18T04:49:21.438Z,2.50
2023-01-18T04:51:48.379Z,2.77
2023-01-18T04:54:18.499Z,2.92
2023-01-18T04:56:45.421Z,3.75
2023-01-18T04:59:16.208Z,3.20
2023-01-18T05:01:43.310Z,3.83
2023-01-18T05:04:10.309Z,4.97
2023-01-18T05:06:37.216Z,4.90
2023-01-18T05:09:04.630Z,4.15
2023-01-18T05:11:31.462Z,3.58
2023-01-18T05:13:58.433Z,3.67
2023-01-18T05:16:25.436Z,3.87
2023-01-18T05:18:52.504Z,4.75
2023-01-18T05:21:19.658Z,4.40
2023-01-18T05:23:46.560Z,3.70
2023-01-18T05:26:19.482Z,4.35
2023-01-18T05:28:47.150Z,6.27
2023-01-18T05:31:16.312Z,6.35
2023-01-18T05:33:43.282Z,12.50
2023-01-18T05:36:10.272Z,7.60
2023-01-18T05:38:37.244Z,8.02
2023-01-18T05:41:04.370Z,8.43
2023-01-18T05:43:31.660Z,12.02
2023-01-18T05:45:59.189Z,10.75
2023-01-18T05:48:26.767Z,11.52
2023-01-18T05:50:53.792Z,8.20
2023-01-18T05:53:22.845Z,10.00
2023-01-18T05:56:00.701Z,9.52
2023-01-18T05:58:28.387Z,13.10
2023-01-18T06:00:56.023Z,11.25
2023-01-18T06:03:25.247Z,13.18
2023-01-18T06:05:52.366Z,12.40
2023-01-18T06:08:20.113Z,13.80
2023-01-18T06:10:54.342Z,10.80
2023-01-18T06:13:22.593Z,12.35
2023-01-18T06:15:49.906Z,9.85
2023-01-18T06:18:16.794Z,13.80
2023-01-18T06:20:43.716Z,13.68
2023-01-18T06:23:10.593Z,12.48
2023-01-18T06:25:37.478Z,14.40
2023-01-18T06:28:05.304Z,15.27
2023-01-18T06:30:33.627Z,17.27
2023-01-18T06:33:04.984Z,14.73
2023-01-18T06:35:32.031Z,15.23
2023-01-18T06:37:59.089Z,17.15
2023-01-18T06:40:26.592Z,21.37
2023-01-18T06:42:53.416Z,17.37
2023-01-18T06:45:22.174Z,21.92
2023-01-18T06:47:49.668Z,21.42
2023-01-18T06:50:17.353Z,18.85
2023-01-18T06:52:45.137Z,15.82
2023-01-18T06:55:13.457Z,13.47
2023-01-18T06:57:41.035Z,12.88
2023-01-18T07:00:09.111Z,15.70
2023-01-18T07:02:36.588Z,14.27
2023-01-18T07:05:05.136Z,15.98
2023-01-18T07:07:32.550Z,11.63
2023-01-18T07:09:59.584Z,10.85
2023-01-18T07:12:26.472Z,11.32
2023-01-18T07:14:53.456Z,14.23
2023-01-18T07:17:20.418Z,12.82
2023-01-18T07:19:47.330Z,13.60
2023-01-18T07:22:14.562Z,13.88
2023-01-18T07:24:41.479Z,20.42
2023-01-18T07:27:08.400Z,22.33
2023-01-18T07:29:36.418Z,13.10
2023-01-18T07:32:03.706Z,12.50
2023-01-18T07:34:30.560Z,12.35
2023-01-18T07:36:57.521Z,15.45
2023-01-18T07:39:24.641Z,13.77
2023-01-18T07:41:51.753Z,14.05
2023-01-18T07:44:18.900Z,12.33
2023-01-18T07:46:45.815Z,10.20
2023-01-18T07:49:12.784Z,9.82
2023-01-18T07:51:41.329Z,10.80
2023-01-18T07:54:08.979Z,9.18
2023-01-18T07:56:36.243Z,6.77
2023-01-18T07:59:03.294Z,5.87
2023-01-18T08:01:30.441Z,6.75
2023-01-18T08:03:58.132Z,3.50
2023-01-18T08:06:26.341Z,2.95
2023-01-18T08:08:56.958Z,2.47
2023-01-18T08:11:24.352Z,3.12
2023-01-18T08:13:52.717Z,4.30
2023-01-18T08:16:19.908Z,3.15
2023-01-18T08:18:49.703Z,2.47
2023-01-18T08:21:16.822Z,1.57
2023-01-18T08:23:43.760Z,1.65
2023-01-18T08:26:12.915Z,1.92
2023-01-18T08:28:41.449Z,2.08
2023-01-18T08:31:13.482Z,2.10
2023-01-18T08:33:48.901Z,2.67
2023-01-18T08:36:21.234Z,2.22
2023-01-18T08:38:53.788Z,3.15
2023-01-18T08:41:21.456Z,2.87
2023-01-18T08:43:51.065Z,2.22
2023-01-18T08:46:18.699Z,1.80
2023-01-18T08:48:48.540Z,3.42
2023-01-18T08:51:18.182Z,10.00
2023-01-18T08:53:46.685Z,6.70
2023-01-18T08:56:16.014Z,7.12
2023-01-18T08:58:42.833Z,3.03
2023-01-18T09:01:10.497Z,5.57
2023-01-18T09:03:37.807Z,2.60
2023-01-18T09:06:09.174Z,1.50
2023-01-18T09:08:37.490Z,4.62
2023-01-18T09:11:07.355Z,3.53
2023-01-18T09:13:34.748Z,1.05
2023-01-18T09:16:03.252Z,0.80
2023-01-18T09:18:30.349Z,1.60
2023-01-18T09:20:58.476Z,1.55
2023-01-18T09:23:25.839Z,1.10
2023-01-18T09:26:06.677Z,1.50
2023-01-18T09:28:33.945Z,1.90
2023-01-18T09:31:06.212Z,1.50
2023-01-18T09:33:37.944Z,2.20
2023-01-18T09:36:10.426Z,1.10
2023-01-18T09:38:39.048Z,2.15
2023-01-18T09:41:15.539Z,2.20
2023-01-18T09:43:49.906Z,2.30
2023-01-18T09:46:22.624Z,1.98
2023-01-18T09:48:57.912Z,2.03
2023-01-18T09:51:32.764Z,3.42
2023-01-18T09:54:23.309Z,2.28
2023-01-18T09:56:57.261Z,2.47
2023-01-18T09:59:33.879Z,2.80
2023-01-18T10:02:25.586Z,3.03
2023-01-18T10:05:02.570Z,2.83
2023-01-18T10:07:34.201Z,2.97
2023-01-18T10:10:03.299Z,3.37
2023-01-18T10:12:33.207Z,3.22
2023-01-18T10:15:10.446Z,4.67
2023-01-18T10:17:41.559Z,5.57
2023-01-18T10:20:17.364Z,3.97
2023-01-18T10:22:47.799Z,2.70
2023-01-18T10:25:23.011Z,3.05
2023-01-18T10:28:00.537Z,2.60
2023-01-18T10:30:28.941Z,2.60
2023-01-18T10:33:00.440Z,6.53
2023-01-18T10:35:36.604Z,3.55
2023-01-18T10:38:08.722Z,6.22
2023-01-18T10:40:38.963Z,3.93
2023-01-18T10:43:12.832Z,2.25
2023-01-18T10:45:40.647Z,4.22
2023-01-18T10:48:17.320Z,38.15
2023-01-18T10:50:46.835Z,2.75
2023-01-18T10:53:31.461Z,5.97
2023-01-18T10:56:07.782Z,4.28
2023-01-18T10:58:53.509Z,4.97
2023-01-18T11:01:24.999Z,2.83
2023-01-18T11:04:08.203Z,1.87
2023-01-18T11:06:56.255Z,2.20
2023-01-18T11:09:44.188Z,3.12
2023-01-18T11:12:37.309Z,2.80
2023-01-18T11:15:13.355Z,1.98
2023-01-18T11:17:58.565Z,1.25
2023-01-18T11:20:35.659Z,2.40
2023-01-18T11:23:21.451Z,2.53
2023-01-18T11:25:56.659Z,2.17
2023-01-18T11:29:00.226Z,1.70
2023-01-18T11:31:31.101Z,1.70
2023-01-18T11:34:07.743Z,3.07
2023-01-18T11:36:36.567Z,2.08
2023-01-18T11:39:21.591Z,3.25
2023-01-18T11:41:49.347Z,2.58
2023-01-18T11:44:25.254Z,2.75
2023-01-18T11:46:58.938Z,2.53
2023-01-18T11:49:55.198Z,3.45
2023-01-18T11:52:42.415Z,2.62
2023-01-18T11:55:41.653Z,2.60
2023-01-18T11:58:24.673Z,1.80
2023-01-18T12:01:10.856Z,2.93
2023-01-18T12:04:00.682Z,1.87
2023-01-18T12:06:44.615Z,1.65
2023-01-18T12:09:32.956Z,2.17
2023-01-18T12:12:19.299Z,2.60
2023-01-18T12:14:57.830Z,2.77
2023-01-18T12:17:49.409Z,3.10
2023-01-18T12:20:44.168Z,2.97
2023-01-18T12:23:49.515Z,2.75
2023-01-18T12:26:55.061Z,2.65
2023-01-18T12:29:37.821Z,4.77
2023-01-18T12:32:23.723Z,3.47
2023-01-18T12:35:24.645Z,2.75
2023-01-18T12:38:23.227Z,2.85
2023-01-18T12:41:32.552Z,3.62
2023-01-18T12:44:43.753Z,3.63
2023-01-18T12:47:25.798Z,2.53
2023-01-18T12:49:57.464Z,5.37
2023-01-18T12:52:25.265Z,3.47
2023-01-18T12:54:56.088Z,3.12
2023-01-18T12:57:25.801Z,5.03
2023-01-18T12:59:57.997Z,2.28
2023-01-18T13:02:33.989Z,2.92
2023-01-18T13:05:44.057Z,3.25
2023-01-18T13:08:16.246Z,2.97
2023-01-18T13:10:44.687Z,2.33
2023-01-18T13:13:19.995Z,2.20
2023-01-18T13:16:08.825Z,1.92
2023-01-18T13:18:45.176Z,2.70
2023-01-18T13:21:45.368Z,2.50
2023-01-18T13:24:39.815Z,3.47
2023-01-18T13:27:13.337Z,2.42
2023-01-18T13:29:41.381Z,2.95
2023-01-18T13:32:35.727Z,2.28
2023-01-18T13:35:31.626Z,2.37
2023-01-18T13:38:11.398Z,2.83
2023-01-18T13:40:42.768Z,3.85
2023-01-18T13:43:38.166Z,4.75
2023-01-18T13:46:08.053Z,3.70
2023-01-18T13:48:57.611Z,8.20
2023-01-18T13:51:36.807Z,3.60
2023-01-18T13:54:04.365Z,4.65
2023-01-18T13:56:33.388Z,3.40
2023-01-18T13:59:04.705Z,3.50
2023-01-18T14:01:35.379Z,3.40
2023-01-18T14:04:20.521Z,5.33
2023-01-18T14:06:49.126Z,7.50
2023-01-18T14:09:18.565Z,6.45
2023-01-18T14:11:55.586Z,4.68
2023-01-18T14:14:30.646Z,2.65
2023-01-18T14:17:11.718Z,3.17
2023-01-18T14:19:47.498Z,3.70
2023-01-18T14:22:26.818Z,4.25
2023-01-18T14:24:59.528Z,4.28
2023-01-18T14:27:32.628Z,4.55
2023-01-18T14:30:07.854Z,4.57
2023-01-18T14:32:45.659Z,5.62
2023-01-18T14:35:25.468Z,6.25
2023-01-18T14:38:16.872Z,6.15
2023-01-18T14:40:47.563Z,7.75
2023-01-18T14:43:21.506Z,5.47
2023-01-18T14:46:00.326Z,7.43
2023-01-18T14:48:34.598Z,6.55
2023-01-18T14:51:02.495Z,10.38
2023-01-18T14:53:40.745Z,10.73
2023-01-18T14:56:19.295Z,12.13
2023-01-18T14:58:52.050Z,12.93
2023-01-18T15:01:42.966Z,25.35
2023-01-18T15:04:24.437Z,25.23
2023-01-18T15:06:56.746Z,26.73
2023-01-18T15:09:28.012Z,19.27
2023-01-18T15:12:02.271Z,19.40
2023-01-18T15:14:33.521Z,19.55
2023-01-18T15:17:02.217Z,23.40
2023-01-18T15:19:41.908Z,25.48
2023-01-18T15:22:13.173Z,20.60
2023-01-18T15:24:41.983Z,22.35
2023-01-18T15:27:14.737Z,20.42
2023-01-18T15:29:51.149Z,22.15
2023-01-18T15:32:21.857Z,21.10
2023-01-18T15:34:51.142Z,18.83
2023-01-18T15:37:32.313Z,19.83
2023-01-18T15:39:59.771Z,21.20
2023-01-18T15:42:31.995Z,26.35
2023-01-18T15:45:00.097Z,21.58
2023-01-18T15:47:51.995Z,17.67
2023-01-18T15:50:21.253Z,18.02
2023-01-18T15:53:01.998Z,19.95
2023-01-18T15:55:35.151Z,16.20
2023-01-18T15:58:06.871Z,15.70
2023-01-18T16:00:41.101Z,42.87
2023-01-18T16:03:37.193Z,58.03
2023-01-18T16:06:11.902Z,39.33
2023-01-18T16:09:12.782Z,36.65
2023-01-18T16:11:47.752Z,36.30
2023-01-18T16:14:32.838Z,39.80
2023-01-18T16:17:04.150Z,33.70
2023-01-18T16:19:49.453Z,47.72
2023-01-18T16:22:18.867Z,31.25
2023-01-18T16:25:01.431Z,24.60
2023-01-18T16:27:31.345Z,22.30
2023-01-18T16:30:17.502Z,14.40
2023-01-18T16:32:45.723Z,19.55
2023-01-18T16:35:16.904Z,15.98
2023-01-18T16:37:45.160Z,19.83
2023-01-18T16:40:20.985Z,17.23
2023-01-18T16:43:02.082Z,11.27
2023-01-18T16:45:31.098Z,11.18
2023-01-18T16:47:58.754Z,17.65
2023-01-18T16:50:26.645Z,18.17
2023-01-18T16:52:54.324Z,19.27
2023-01-18T16:55:22.750Z,22.23
2023-01-18T16:57:51.720Z,21.98
2023-01-18T17:00:23.898Z,21.25
2023-01-18T17:02:51.875Z,22.67
2023-01-18T17:05:19.678Z,31.90
2023-01-18T17:07:48.437Z,31.62
2023-01-18T17:10:31.128Z,31.52
2023-01-18T17:13:00.212Z,23.90
2023-01-18T17:15:30.475Z,24.92
2023-01-18T17:17:58.802Z,21.47
2023-01-18T17:20:28.230Z,17.42
2023-01-18T17:22:56.415Z,19.35
2023-01-18T17:25:24.874Z,20.42
2023-01-18T17:27:53.896Z,15.13
2023-01-18T17:30:22.233Z,20.03
2023-01-18T17:32:50.482Z,18.55
2023-01-18T17:35:24.714Z,22.58
2023-01-18T17:38:01.000Z,20.20
2023-01-18T17:40:40.988Z,16.85
2023-01-18T17:43:17.242Z,21.17
2023-01-18T17:46:00.572Z,20.48
2023-01-18T17:48:29.120Z,21.92
2023-01-18T17:50:56.776Z,29.90
2023-01-18T17:53:24.200Z,32.83
2023-01-18T17:55:51.836Z,21.87
2023-01-18T17:58:19.513Z,25.73
2023-01-18T18:00:47.969Z,22.67
2023-01-18T18:03:17.995Z,23.38
2023-01-18T18:05:48.511Z,24.20
2023-01-18T18:08:20.046Z,24.70
2023-01-18T18:10:49.366Z,27.62
2023-01-18T18:13:19.363Z,26.23
2023-01-18T18:15:50.469Z,30.48
2023-01-18T18:18:22.971Z,33.40
2023-01-18T18:21:03.468Z,37.47
2023-01-18T18:23:31.997Z,41.13
2023-01-18T18:26:03.810Z,37.17
2023-01-18T18:28:33.423Z,36.53
2023-01-18T18:31:01.795Z,34.38
2023-01-18T18:33:32.915Z,30.97
2023-01-18T18:36:02.069Z,26.42
2023-01-18T18:38:31.139Z,22.45
2023-01-18T18:41:05.446Z,18.95
2023-01-18T18:43:33.384Z,21.67
2023-01-18T18:46:02.190Z,19.67
2023-01-18T18:48:31.943Z,21.05
2023-01-18T18:51:01.855Z,16.73
2023-01-18T18:53:38.576Z,24.58
2023-01-18T18:56:10.305Z,21.80
2023-01-18T18:58:40.174Z,20.03
2023-01-18T19:01:17.983Z,19.40
2023-01-18T19:03:46.485Z,17.52
2023-01-18T19:06:16.126Z,17.08
2023-01-18T19:08:43.990Z,16.30
2023-01-18T19:11:16.451Z,17.50
2023-01-18T19:13:46.318Z,15.65
2023-01-18T19:16:15.195Z,12.85
2023-01-18T19:18:44.693Z,15.18
2023-01-18T19:21:13.160Z,13.85
2023-01-18T19:23:41.382Z,15.57
2023-01-18T19:26:09.315Z,15.88
2023-01-18T19:28:37.698Z,14.05
2023-01-18T19:31:08.584Z,17.37
2023-01-18T19:33:37.220Z,16.67
2023-01-18T19:36:11.788Z,18.70
2023-01-18T19:38:52.699Z,16.52
2023-01-18T19:41:26.392Z,16.05
2023-01-18T19:43:55.664Z,14.35
2023-01-18T19:46:24.178Z,11.40
2023-01-18T19:49:02.858Z,12.03
2023-01-18T19:51:31.691Z,14.73
2023-01-18T19:53:59.958Z,11.38
2023-01-18T19:56:29.640Z,12.40
2023-01-18T19:58:58.731Z,14.85
2023-01-18T20:01:36.312Z,13.40
2023-01-18T20:04:06.792Z,16.20
2023-01-18T20:06:38.879Z,13.13
2023-01-18T20:09:18.411Z,14.38
2023-01-18T20:11:49.402Z,14.60
2023-01-18T20:14:19.808Z,15.90
2023-01-18T20:16:48.621Z,13.23
2023-01-18T20:19:18.010Z,13.90
2023-01-18T20:21:47.031Z,16.05
2023-01-18T20:24:15.114Z,17.87
2023-01-18T20:26:43.814Z,15.27
2023-01-18T20:29:12.298Z,14.30
2023-01-18T20:31:44.639Z,19.27
2023-01-18T20:34:17.732Z,39.47
2023-01-18T20:36:46.621Z,44.33
2023-01-18T20:39:14.843Z,49.43
2023-01-18T20:41:43.101Z,77.03
2023-01-18T20:44:11.562Z,51.53
2023-01-18T20:46:39.394Z,46.37
2023-01-18T20:49:07.648Z,37.47
2023-01-18T20:51:40.979Z,33.60
2023-01-18T20:54:10.073Z,27.05
2023-01-18T20:56:37.412Z,18.62
2023-01-18T20:59:04.979Z,16.48
2023-01-18T21:01:33.140Z,15.05
2023-01-18T21:04:02.946Z,14.20
2023-01-18T21:06:33.888Z,16.42
2023-01-18T21:09:01.960Z,19.55
2023-01-18T21:11:33.210Z,14.40
2023-01-18T21:14:00.446Z,13.75
2023-01-18T21:16:28.091Z,16.43
2023-01-18T21:18:56.780Z,12.30
2023-01-18T21:21:27.132Z,14.55
2023-01-18T21:23:54.550Z,13.40
2023-01-18T21:26:21.899Z,13.82
2023-01-18T21:28:48.791Z,15.33
2023-01-18T21:31:16.071Z,14.55
2023-01-18T21:33:43.143Z,14.65
2023-01-18T21:36:13.875Z,15.35
2023-01-18T21:38:40.992Z,15.75
2023-01-18T21:41:26.583Z,13.27
2023-01-18T21:44:12.812Z,13.15
2023-01-18T21:46:51.226Z,14.63
2023-01-18T21:50:03.938Z,14.02
2023-01-18T21:52:43.587Z,13.95
2023-01-18T21:55:10.473Z,16.17
2023-01-18T21:57:38.733Z,13.15
2023-01-18T22:00:06.498Z,15.15
2023-01-18T22:02:34.664Z,14.57
2023-01-18T22:05:03.761Z,15.90
2023-01-18T22:07:34.052Z,14.03
2023-01-18T22:10:06.556Z,14.77
2023-01-18T22:12:35.735Z,15.05
2023-01-18T22:15:04.731Z,14.68
2023-01-18T22:17:31.966Z,14.18
2023-01-18T22:19:59.854Z,15.10
2023-01-18T22:22:30.631Z,14.90
2023-01-18T22:25:00.154Z,13.05
2023-01-18T22:27:27.121Z,14.50
2023-01-18T22:29:54.106Z,15.15
2023-01-18T22:32:21.722Z,14.73
2023-01-18T22:34:48.610Z,14.00
2023-01-18T22:37:15.437Z,15.60
2023-01-18T22:39:42.319Z,16.73
2023-01-18T22:42:09.239Z,19.20
2023-01-18T22:44:37.106Z,19.33
2023-01-18T22:47:04.060Z,16.30
2023-01-18T22:49:31.151Z,18.67
2023-01-18T22:51:58.036Z,19.25
2023-01-18T22:54:24.996Z,19.52
2023-01-18T22:56:51.860Z,17.77
2023-01-18T22:59:18.782Z,16.60
2023-01-18T23:01:45.859Z,19.50
2023-01-18T23:04:12.768Z,15.85
2023-01-18T23:06:45.804Z,17.08
2023-01-18T23:09:14.433Z,18.87
2023-01-18T23:11:41.482Z,18.08
2023-01-18T23:14:26.859Z,16.83
2023-01-18T23:17:12.069Z,18.83
2023-01-18T23:19:39.037Z,17.87
2023-01-18T23:22:07.403Z,17.47
2023-01-18T23:24:36.474Z,16.30
2023-01-18T23:27:08.022Z,17.70
2023-01-18T23:29:35.019Z,15.43
2023-01-18T23:32:02.017Z,15.88
2023-01-18T23:34:28.891Z,15.97
2023-01-18T23:36:55.850Z,15.50
2023-01-18T23:39:41.221Z,14.65
2023-01-18T23:42:27.114Z,13.20
2023-01-18T23:45:12.894Z,13.73
2023-01-18T23:47:58.878Z,11.67
2023-01-18T23:50:44.739Z,13.30
2023-01-18T23:53:31.495Z,11.18
2023-01-18T23:55:59.400Z,10.65
2023-01-18T23:58:26.811Z,9.75
